Time;durP1;ratioP1;P1;durP2;ratioP2;P2;SDS_P1;SDS_P2;PMS_P1;PMS_P2;Temp;Humidity;BMP_temperature;BMP_pressure;BME280_temperature;BME280_humidity;BME280_pressure;Samples;Min_cycle;Max_cycle;Signal;HPM_P1;HPM_P2
2023/06/20 00:00:49;;;;;;;6.80;5.80;;;;;;;21.85;100.00;98171.13;4138917;28;20280;-53
2023/06/20 00:02:50;;;;;;;5.22;4.93;;;;;;;21.93;100.00;98175.84;4146252;28;20722;-52
2023/06/20 00:04:52;;;;;;;6.22;5.72;;;;;;;22.08;100.00;98165.00;4144516;28;20220;-52
2023/06/20 00:06:54;;;;;;;6.30;5.90;;;;;;;21.98;100.00;98156.19;4137928;28;20260;-52
2023/06/20 00:08:56;;;;;;;6.05;5.75;;;;;;;22.08;100.00;98161.38;4144715;28;20223;-51
2023/06/20 00:11:00;;;;;;;6.38;5.97;;;;;;;22.11;100.00;98155.94;4142054;28;20219;-51
2023/06/20 00:13:03;;;;;;;7.05;6.53;;;;;;;22.18;100.00;98172.19;4153023;28;20211;-51
2023/06/20 00:15:05;;;;;;;6.20;5.80;;;;;;;22.10;100.00;98173.84;4142207;28;20282;-53
2023/06/20 00:17:07;;;;;;;5.80;5.40;;;;;;;22.10;100.00;98175.81;4168224;28;20318;-56
2023/06/20 00:19:09;;;;;;;6.40;6.00;;;;;;;21.85;100.00;98179.50;4143204;28;20213;-51
2023/06/20 00:21:11;;;;;;;6.63;6.22;;;;;;;21.81;100.00;98189.66;4154115;28;20220;-51
2023/06/20 00:23:12;;;;;;;6.07;5.57;;;;;;;21.84;100.00;98177.84;4137149;28;20213;-52
2023/06/20 00:25:14;;;;;;;7.43;6.88;;;;;;;21.95;100.00;98170.75;4153012;28;20224;-53
2023/06/20 00:27:16;;;;;;;7.30;6.78;;;;;;;21.92;100.00;98175.03;4143048;28;20208;-50
2023/06/20 00:29:18;;;;;;;14.70;7.28;;;;;;;21.67;100.00;98178.69;4152115;28;20219;-49
2023/06/20 00:31:19;;;;;;;6.13;5.72;;;;;;;21.66;100.00;98176.22;4137044;28;20208;-50
2023/06/20 00:33:21;;;;;;;4.60;4.32;;;;;;;21.75;100.00;98179.81;4170453;28;20234;-51
2023/06/20 00:35:23;;;;;;;6.68;6.07;;;;;;;21.81;100.00;98175.72;4139072;28;20275;-52
2023/06/20 00:37:26;;;;;;;6.45;6.05;;;;;;;21.86;100.00;98183.91;4126541;28;20842;-51
2023/06/20 00:39:28;;;;;;;6.32;5.93;;;;;;;21.88;100.00;98190.78;4153855;28;20208;-49
2023/06/20 00:41:31;;;;;;;6.30;5.90;;;;;;;21.90;100.00;98199.63;4140120;28;20275;-50
2023/06/20 00:43:33;;;;;;;6.97;6.47;;;;;;;21.98;100.00;98207.16;4138364;28;20260;-50
2023/06/20 00:45:35;;;;;;;7.88;7.18;;;;;;;21.86;100.00;98236.84;4152955;28;20303;-53
2023/06/20 00:47:36;;;;;;;7.50;6.85;;;;;;;21.54;100.00;98228.97;4139310;28;20221;-51
2023/06/20 00:49:39;;;;;;;7.63;7.13;;;;;;;21.43;100.00;98206.19;4139755;28;20206;-52
2023/06/20 00:51:40;;;;;;;7.40;6.90;;;;;;;21.38;100.00;98178.50;4141129;28;20312;-54
2023/06/20 00:53:42;;;;;;;8.77;7.90;;;;;;;21.27;100.00;98159.69;4143863;28;20655;-53
2023/06/20 00:55:44;;;;;;;8.20;7.68;;;;;;;21.20;100.00;98151.00;4139465;28;20278;-52
2023/06/20 00:57:48;;;;;;;8.35;7.00;;;;;;;21.27;100.00;98156.91;4137190;28;20230;-54
2023/06/20 00:59:50;;;;;;;6.82;6.43;;;;;;;21.09;100.00;98166.38;4167766;28;20697;-51
2023/06/20 01:01:53;;;;;;;7.50;7.00;;;;;;;21.27;100.00;98173.59;4140005;28;20229;-52
2023/06/20 01:03:56;;;;;;;7.20;6.63;;;;;;;21.33;100.00;98180.66;4141942;28;20260;-54
2023/06/20 01:06:10;;;;;;;7.13;6.50;;;;;;;21.41;100.00;98180.66;4151049;28;20236;-55
2023/06/20 01:08:15;;;;;;;6.93;6.43;;;;;;;21.47;100.00;98190.47;4138331;28;20308;-54
2023/06/20 01:10:34;;;;;;;6.72;6.22;;;;;;;21.56;100.00;98187.66;4158366;28;20212;-51
2023/06/20 01:12:43;;;;;;;6.82;6.20;;;;;;;21.67;100.00;98195.41;4154671;28;20314;-51
2023/06/20 01:15:15;;;;;;;6.88;6.47;;;;;;;21.72;100.00;98192.44;4169618;28;20447;-51
2023/06/20 01:17:24;;;;;;;6.53;6.13;;;;;;;21.52;100.00;98181.13;4168621;28;20205;-52
2023/06/20 01:20:01;;;;;;;7.55;7.07;;;;;;;21.56;100.00;98176.53;4138630;28;20263;-51
2023/06/20 01:22:07;;;;;;;6.55;5.97;;;;;;;21.60;100.00;98181.13;4151891;28;20255;-51
2023/06/20 01:24:29;;;;;;;7.47;6.97;;;;;;;21.69;100.00;98183.91;4167862;28;20280;-51
2023/06/20 01:26:37;;;;;;;7.63;7.13;;;;;;;21.74;100.00;98194.91;4168514;28;20199;-51
2023/06/20 01:28:43;;;;;;;7.95;7.43;;;;;;;21.60;100.00;98188.66;4152577;28;20204;-53
2023/06/20 01:31:02;;;;;;;7.45;6.95;;;;;;;21.65;100.00;98196.84;4142888;28;20204;-51
2023/06/20 01:33:04;;;;;;;7.60;7.10;;;;;;;21.28;100.00;98208.66;4135217;28;20228;-52
2023/06/20 01:35:11;;;;;;;9.32;8.70;;;;;;;21.00;100.00;98213.69;4139986;28;20236;-51
2023/06/20 01:37:16;;;;;;;7.93;7.43;;;;;;;20.90;100.00;98224.31;4145229;28;20653;-54
2023/06/20 01:39:23;;;;;;;10.65;9.90;;;;;;;20.71;100.00;98220.97;4152170;28;20208;-51
2023/06/20 01:41:27;;;;;;;9.40;8.70;;;;;;;20.60;100.00;98219.59;4134944;28;20259;-51
2023/06/20 01:43:29;;;;;;;8.93;8.35;;;;;;;20.65;100.00;98222.25;4137613;28;20264;-51
2023/06/20 01:45:33;;;;;;;10.48;9.77;;;;;;;20.52;100.00;98201.75;4140446;28;20244;-51
2023/06/20 01:47:37;;;;;;;9.68;9.00;;;;;;;20.60;100.00;98200.13;4151901;28;20204;-51
2023/06/20 01:49:41;;;;;;;10.77;9.82;;;;;;;20.56;100.00;98201.91;4137582;28;20653;-51
2023/06/20 01:51:44;;;;;;;9.65;9.05;;;;;;;20.63;100.00;98202.25;4149950;28;20193;-51
2023/06/20 01:53:46;;;;;;;10.05;9.35;;;;;;;20.69;100.00;98189.84;4125076;28;20770;-51
2023/06/20 01:55:48;;;;;;;10.77;10.05;;;;;;;20.76;100.00;98170.72;4149925;28;20224;-51
2023/06/20 01:57:52;;;;;;;11.07;10.25;;;;;;;20.50;100.00;98159.53;4157035;28;20208;-51
2023/06/20 01:59:54;;;;;;;10.65;9.95;;;;;;;20.61;100.00;98160.06;4138948;28;20691;-51
2023/06/20 02:01:58;;;;;;;10.02;9.10;;;;;;;20.68;100.00;98160.41;4168347;28;20231;-50
2023/06/20 02:04:01;;;;;;;9.45;8.85;;;;;;;20.83;100.00;98157.97;4127677;28;20898;-51
2023/06/20 02:06:03;;;;;;;10.45;9.65;;;;;;;20.78;100.00;98171.25;4166826;28;20228;-51
2023/06/20 02:08:05;;;;;;;8.93;8.32;;;;;;;20.61;100.00;98187.88;4141593;28;20263;-51
2023/06/20 02:10:07;;;;;;;9.82;9.00;;;;;;;20.56;100.00;98190.78;4136280;28;20654;-50
2023/06/20 02:12:09;;;;;;;11.38;10.60;;;;;;;20.55;100.00;98183.59;4143503;28;20219;-51
2023/06/20 02:14:12;;;;;;;9.25;8.65;;;;;;;20.53;100.00;98183.09;4138148;28;20209;-53
2023/06/20 02:16:15;;;;;;;9.07;8.48;;;;;;;20.73;100.00;98179.72;4123738;28;20221;-52
2023/06/20 02:18:19;;;;;;;9.55;8.85;;;;;;;20.62;100.00;98173.66;4124988;28;20304;-51
2023/06/20 02:20:21;;;;;;;9.15;8.65;;;;;;;20.80;100.00;98164.22;4140246;28;20212;-52
2023/06/20 02:22:25;;;;;;;8.95;8.27;;;;;;;20.84;100.00;98161.59;4138466;28;20722;-52
2023/06/20 02:24:31;;;;;;;10.70;9.73;;;;;;;20.82;100.00;98166.66;4141325;28;20247;-51
2023/06/20 02:26:36;;;;;;;9.85;9.07;;;;;;;20.57;100.00;98171.00;4136464;28;20691;-51
2023/06/20 02:28:45;;;;;;;11.15;10.25;;;;;;;20.55;100.00;98161.34;4168622;28;20208;-51
2023/06/20 02:30:48;;;;;;;12.07;11.18;;;;;;;20.65;100.00;98161.06;4141229;28;20204;-53
2023/06/20 02:32:52;;;;;;;9.60;8.90;;;;;;;20.64;100.00;98159.44;4136289;28;20256;-52
2023/06/20 02:34:54;;;;;;;10.52;9.68;;;;;;;20.68;100.00;98152.06;4151296;28;20313;-51
2023/06/20 02:36:58;;;;;;;11.15;10.13;;;;;;;20.80;100.00;98163.38;4121924;28;20206;-51
2023/06/20 02:38:59;;;;;;;10.23;9.32;;;;;;;20.84;100.00;98147.69;4169588;28;20203;-52
2023/06/20 02:41:01;;;;;;;9.30;8.60;;;;;;;20.84;100.00;98153.25;4143889;28;20216;-52
2023/06/20 02:43:03;;;;;;;9.93;9.23;;;;;;;20.90;100.00;98169.47;4124263;28;20229;-52
2023/06/20 02:45:05;;;;;;;10.00;9.13;;;;;;;20.99;100.00;98161.94;4121424;28;20229;-51
2023/06/20 02:47:16;;;;;;;9.75;9.05;;;;;;;21.00;100.00;98174.75;4170599;28;20867;-51
2023/06/20 02:49:22;;;;;;;9.13;8.25;;;;;;;21.04;100.00;98178.50;4170766;28;20199;-52
2023/06/20 02:51:27;;;;;;;9.35;8.38;;;;;;;21.10;100.00;98173.63;4153485;28;20200;-52
2023/06/20 02:53:30;;;;;;;8.75;8.05;;;;;;;21.09;100.00;98177.50;4144816;28;20677;-49
2023/06/20 02:55:56;;;;;;;8.98;8.27;;;;;;;21.15;100.00;98179.00;4138270;28;20225;-49
2023/06/20 02:57:59;;;;;;;9.23;8.52;;;;;;;21.23;100.00;98178.22;4170391;28;20245;-51
2023/06/20 03:00:11;;;;;;;9.65;9.02;;;;;;;21.15;100.00;98176.22;4155207;28;20270;-49
2023/06/20 03:02:17;;;;;;;10.07;9.38;;;;;;;20.67;100.00;98170.72;4144747;28;20264;-51
2023/06/20 03:04:19;;;;;;;9.55;8.85;;;;;;;20.66;100.00;98168.25;4172765;28;20204;-50
2023/06/20 03:06:26;;;;;;;11.15;10.35;;;;;;;20.63;100.00;98168.88;4140189;28;21219;-49
2023/06/20 03:08:30;;;;;;;9.95;9.18;;;;;;;20.61;100.00;98162.84;4168673;28;20221;-51
2023/06/20 03:10:32;;;;;;;11.00;10.20;;;;;;;20.55;100.00;98175.25;4140174;28;20588;-51
2023/06/20 03:12:34;;;;;;;9.75;8.95;;;;;;;20.59;100.00;98173.47;4140682;28;20328;-51
2023/06/20 03:14:36;;;;;;;9.75;9.05;;;;;;;20.66;100.00;98180.22;4169342;28;20219;-51
2023/06/20 03:16:37;;;;;;;9.73;9.02;;;;;;;20.70;100.00;98191.50;4143187;28;20259;-51
2023/06/20 03:18:40;;;;;;;9.85;9.10;;;;;;;20.73;100.00;98191.69;4168016;28;20221;-51
2023/06/20 03:20:43;;;;;;;8.90;8.20;;;;;;;20.77;100.00;98189.06;4126905;28;20225;-51
2023/06/20 03:22:45;;;;;;;9.05;8.35;;;;;;;20.81;100.00;98192.81;4141097;28;20229;-52
2023/06/20 03:24:49;;;;;;;10.23;9.27;;;;;;;20.93;100.00;98190.28;4142519;28;20224;-52
2023/06/20 03:26:51;;;;;;;9.05;8.45;;;;;;;20.87;100.00;98185.97;4141567;28;20213;-49
2023/06/20 03:28:52;;;;;;;9.40;8.52;;;;;;;20.90;100.00;98188.16;4152230;28;20311;-49
2023/06/20 03:30:54;;;;;;;9.20;8.48;;;;;;;20.88;100.00;98187.63;4142257;28;20250;-49
2023/06/20 03:32:56;;;;;;;8.60;8.00;;;;;;;20.88;100.00;98188.47;4144407;28;20205;-49
2023/06/20 03:34:58;;;;;;;10.18;9.38;;;;;;;20.89;100.00;98194.84;4146576;28;20240;-49
2023/06/20 03:37:00;;;;;;;9.65;8.77;;;;;;;20.90;100.00;98199.28;4168125;28;20208;-51
2023/06/20 03:39:01;;;;;;;9.00;8.10;;;;;;;20.85;100.00;98205.75;4158214;28;20207;-51
2023/06/20 03:41:03;;;;;;;12.18;8.48;;;;;;;20.88;100.00;98204.31;4144486;28;20224;-54
2023/06/20 03:43:05;;;;;;;9.10;8.30;;;;;;;20.85;100.00;98204.97;4169024;28;20223;-51
2023/06/20 03:45:08;;;;;;;8.90;8.30;;;;;;;20.84;100.00;98204.13;4140518;28;20224;-50
2023/06/20 03:47:09;;;;;;;8.90;8.30;;;;;;;20.79;100.00;98200.69;4170326;28;20226;-52
2023/06/20 03:49:11;;;;;;;7.72;7.22;;;;;;;20.76;100.00;98199.38;4168515;28;20204;-51
2023/06/20 03:51:13;;;;;;;8.88;8.27;;;;;;;20.75;100.00;98202.47;4139018;28;20315;-50
2023/06/20 03:53:14;;;;;;;9.57;8.88;;;;;;;20.72;100.00;98206.72;4138509;28;20228;-51
2023/06/20 03:55:16;;;;;;;9.32;8.48;;;;;;;20.74;100.00;98198.03;4166112;28;20231;-49
2023/06/20 03:57:18;;;;;;;8.77;8.18;;;;;;;20.74;100.00;98201.66;4138109;28;20212;-50
2023/06/20 03:59:20;;;;;;;9.57;8.88;;;;;;;20.70;100.00;98200.66;4151851;28;20219;-50
2023/06/20 04:01:24;;;;;;;8.80;8.20;;;;;;;20.65;100.00;98206.38;4143041;28;21627;-49
2023/06/20 04:03:26;;;;;;;9.07;8.48;;;;;;;20.69;100.00;98209.31;4143906;28;20236;-50
2023/06/20 04:05:28;;;;;;;8.43;7.82;;;;;;;20.68;100.00;98210.47;4135903;28;20332;-50
2023/06/20 04:07:31;;;;;;;8.73;8.13;;;;;;;20.67;100.00;98211.59;4137545;28;20214;-52
2023/06/20 04:09:33;;;;;;;11.55;10.45;;;;;;;20.61;100.00;98210.13;4136967;28;20229;-50
2023/06/20 04:11:35;;;;;;;11.77;11.02;;;;;;;20.56;100.00;98208.31;4141608;28;20208;-52
2023/06/20 04:13:37;;;;;;;10.55;9.85;;;;;;;20.52;100.00;98209.28;4138077;28;20201;-49
2023/06/20 04:15:38;;;;;;;9.57;8.98;;;;;;;20.45;100.00;98209.72;4141203;28;20232;-49
2023/06/20 04:17:41;;;;;;;9.00;8.40;;;;;;;20.50;100.00;98209.59;4168955;28;20241;-53
2023/06/20 04:19:42;;;;;;;10.57;9.88;;;;;;;20.57;100.00;98203.56;4143811;28;20209;-49
2023/06/20 04:21:44;;;;;;;9.43;8.82;;;;;;;20.60;100.00;98202.91;4141071;28;20204;-53
2023/06/20 04:23:46;;;;;;;9.50;8.90;;;;;;;20.58;100.00;98205.22;4145681;28;20718;-51
2023/06/20 04:25:48;;;;;;;11.13;10.02;;;;;;;20.68;100.00;98197.38;4168477;28;20224;-49
2023/06/20 04:27:53;;;;;;;10.88;9.85;;;;;;;20.67;100.00;98200.47;4143478;28;20543;-50
2023/06/20 04:29:57;;;;;;;12.90;11.93;;;;;;;20.46;100.00;98205.84;4144380;28;20209;-51
2023/06/20 04:31:59;;;;;;;13.27;12.15;;;;;;;20.27;100.00;98201.63;4140836;28;20217;-49
2023/06/20 04:34:01;;;;;;;12.30;11.52;;;;;;;20.16;100.00;98203.03;4150846;28;20748;-49
2023/06/20 04:36:02;;;;;;;10.30;9.55;;;;;;;20.28;100.00;98198.56;4138603;28;20312;-49
2023/06/20 04:38:04;;;;;;;11.15;10.30;;;;;;;20.39;100.00;98194.31;4153911;28;20212;-50
2023/06/20 04:40:08;;;;;;;12.70;11.80;;;;;;;20.47;100.00;98192.72;4139557;28;20216;-53
2023/06/20 04:42:10;;;;;;;11.57;10.55;;;;;;;20.56;100.00;98193.56;4139637;28;20726;-49
2023/06/20 04:44:12;;;;;;;10.88;10.18;;;;;;;20.59;100.00;98201.28;4143413;28;20264;-49
2023/06/20 04:46:15;;;;;;;10.50;9.70;;;;;;;20.65;100.00;98198.03;4143439;28;20669;-50
2023/06/20 04:48:20;;;;;;;10.52;9.50;;;;;;;20.71;100.00;98204.28;4168264;28;20214;-51
2023/06/20 04:50:22;;;;;;;10.65;9.85;;;;;;;20.75;100.00;98194.13;4151628;28;20208;-50
2023/06/20 04:52:24;;;;;;;10.52;9.85;;;;;;;20.80;100.00;98203.16;4136736;28;20257;-50
2023/06/20 04:54:26;;;;;;;10.18;9.43;;;;;;;20.84;100.00;98200.53;4145840;28;20203;-52
2023/06/20 04:56:27;;;;;;;10.07;9.48;;;;;;;20.90;100.00;98202.88;4134758;28;20209;-51
2023/06/20 04:58:30;;;;;;;10.38;9.68;;;;;;;20.91;100.00;98198.13;4165517;28;20207;-51
2023/06/20 05:00:37;;;;;;;10.48;9.77;;;;;;;20.93;100.00;98206.97;4131121;28;21404;-52
2023/06/20 05:02:42;;;;;;;12.68;11.88;;;;;;;20.83;100.00;98204.44;4143080;28;20255;-49
2023/06/20 05:04:44;;;;;;;10.98;10.13;;;;;;;20.83;100.00;98201.66;4137098;28;20603;-50
2023/06/20 05:06:46;;;;;;;10.63;9.98;;;;;;;20.89;100.00;98211.53;4168342;28;20311;-49
2023/06/20 05:08:47;;;;;;;10.70;10.00;;;;;;;20.96;100.00;98215.47;4173372;28;20199;-49
2023/06/20 05:10:49;;;;;;;12.45;11.65;;;;;;;20.99;100.00;98214.03;4139957;28;20209;-49
2023/06/20 05:12:51;;;;;;;12.10;11.30;;;;;;;21.08;100.00;98217.63;4168481;28;20203;-50
2023/06/20 05:14:53;;;;;;;11.35;10.48;;;;;;;20.96;100.00;98223.84;4136566;28;20257;-50
2023/06/20 05:16:54;;;;;;;13.48;12.48;;;;;;;21.01;100.00;98231.19;4151997;28;20217;-50
2023/06/20 05:18:56;;;;;;;11.25;10.45;;;;;;;21.06;100.00;98215.19;4139976;28;20262;-50
2023/06/20 05:20:58;;;;;;;10.80;10.10;;;;;;;21.13;100.00;98223.03;4150897;28;20211;-49
2023/06/20 05:22:59;;;;;;;11.30;10.55;;;;;;;21.16;100.00;98222.38;4135044;28;20307;-51
2023/06/20 05:25:01;;;;;;;12.57;11.77;;;;;;;21.12;100.00;98226.97;4150911;28;20228;-51
2023/06/20 05:27:04;;;;;;;12.10;11.38;;;;;;;21.20;100.00;98228.94;4167443;28;20212;-49
2023/06/20 05:29:05;;;;;;;13.20;12.30;;;;;;;21.33;100.00;98219.63;4138325;28;20299;-50
2023/06/20 05:31:09;;;;;;;11.63;10.38;;;;;;;21.43;100.00;98222.09;4152152;28;20200;-51
2023/06/20 05:33:11;;;;;;;12.32;11.43;;;;;;;21.55;100.00;98225.03;4138507;28;20575;-50
2023/06/20 05:35:13;;;;;;;12.00;11.20;;;;;;;21.60;100.00;98222.91;4169936;28;20223;-49
2023/06/20 05:37:16;;;;;;;13.95;13.05;;;;;;;21.68;100.00;98226.84;4166983;28;20195;-52
2023/06/20 05:39:18;;;;;;;14.13;12.68;;;;;;;21.84;100.00;98226.03;4149251;28;20692;-50
2023/06/20 05:41:20;;;;;;;11.40;10.70;;;;;;;21.97;100.00;98227.00;4168811;28;20238;-53
2023/06/20 05:43:21;;;;;;;13.07;12.18;;;;;;;21.97;100.00;98227.00;4141443;28;20238;-51
2023/06/20 05:45:23;;;;;;;12.77;11.85;;;;;;;22.14;100.00;98218.59;4137119;28;20294;-50
2023/06/20 05:47:25;;;;;;;13.05;12.25;;;;;;;22.12;100.00;98218.13;4131393;28;20224;-53
2023/06/20 05:49:27;;;;;;;13.68;12.77;;;;;;;22.30;100.00;98222.50;4165993;28;20208;-51
2023/06/20 05:51:29;;;;;;;12.63;11.73;;;;;;;22.42;100.00;98228.16;4142494;28;20647;-50
2023/06/20 05:53:31;;;;;;;12.30;11.60;;;;;;;22.56;100.00;98231.63;4136756;28;20205;-52
2023/06/20 05:55:33;;;;;;;11.95;11.15;;;;;;;22.69;100.00;98224.97;4139738;28;20247;-51
2023/06/20 05:57:35;;;;;;;12.30;11.60;;;;;;;22.78;100.00;98228.56;4140679;28;20220;-49
2023/06/20 05:59:37;;;;;;;12.25;11.15;;;;;;;22.91;100.00;98221.91;4142130;28;20749;-50
2023/06/20 06:01:40;;;;;;;13.70;12.65;;;;;;;22.90;100.00;98218.31;4150946;28;20204;-50
2023/06/20 06:03:42;;;;;;;13.48;12.63;;;;;;;22.78;100.00;98220.19;4138282;28;20790;-49
2023/06/20 06:05:44;;;;;;;12.98;12.18;;;;;;;23.11;100.00;98223.94;4139553;28;20910;-49
2023/06/20 06:07:46;;;;;;;11.40;10.60;;;;;;;23.39;100.00;98225.06;4141629;28;20651;-49
2023/06/20 06:09:47;;;;;;;13.88;13.05;;;;;;;23.38;100.00;98229.03;4151799;28;20209;-50
2023/06/20 06:11:49;;;;;;;11.18;10.48;;;;;;;23.60;100.00;98234.28;4141815;28;20214;-49
2023/06/20 06:13:51;;;;;;;12.77;11.88;;;;;;;23.36;100.00;98225.78;4148692;28;20201;-50
2023/06/20 06:15:53;;;;;;;12.50;11.77;;;;;;;23.44;100.00;98234.06;4143012;28;20247;-51
2023/06/20 06:18:03;;;;;;;10.35;9.75;;;;;;;23.57;100.00;98232.19;4145022;28;20695;-50
2023/06/20 06:20:12;;;;;;;12.02;11.23;;;;;;;23.80;100.00;98240.66;4155170;28;20214;-49
2023/06/20 06:22:13;;;;;;;10.77;10.07;;;;;;;23.69;100.00;98235.03;4138678;28;20633;-51
2023/06/20 06:24:15;;;;;;;10.98;10.23;;;;;;;23.83;100.00;98235.56;4145028;28;20272;-50
2023/06/20 06:26:20;;;;;;;10.05;9.45;;;;;;;23.85;100.00;98234.03;4171397;28;20219;-49
2023/06/20 06:28:23;;;;;;;11.63;10.82;;;;;;;23.63;100.00;98236.41;4146401;28;20634;-50
2023/06/20 06:30:25;;;;;;;11.10;10.38;;;;;;;23.77;100.00;98235.78;4142991;28;21326;-49
2023/06/20 06:32:27;;;;;;;11.40;10.52;;;;;;;23.67;100.00;98233.38;4139386;28;20274;-48
2023/06/20 06:34:29;;;;;;;11.88;11.07;;;;;;;23.48;100.00;98245.38;4140706;28;20260;-50
2023/06/20 06:36:32;;;;;;;12.07;10.82;;;;;;;23.52;100.00;98247.19;4139673;28;20205;-49
2023/06/20 06:38:34;;;;;;;11.70;10.93;;;;;;;23.48;100.00;98242.59;4173060;28;20711;-50
2023/06/20 06:40:36;;;;;;;10.45;9.82;;;;;;;23.87;100.00;98242.97;4139473;28;20267;-52
2023/06/20 06:42:38;;;;;;;11.80;10.90;;;;;;;24.24;100.00;98242.75;4144152;28;20259;-52
2023/06/20 06:44:40;;;;;;;12.88;12.07;;;;;;;23.90;100.00;98238.66;4152494;28;20283;-52
2023/06/20 06:46:42;;;;;;;12.38;11.48;;;;;;;23.79;100.00;98239.03;4139324;28;20220;-49
2023/06/20 06:48:43;;;;;;;13.07;12.20;;;;;;;23.93;100.00;98247.97;4143184;28;20205;-50
2023/06/20 06:50:46;;;;;;;11.57;10.88;;;;;;;24.30;100.00;98241.38;4135658;28;20212;-49
2023/06/20 06:52:47;;;;;;;12.77;11.98;;;;;;;24.31;100.00;98243.00;4134433;28;20583;-49
2023/06/20 06:54:49;;;;;;;11.68;10.88;;;;;;;24.44;98.28;98225.06;4136700;28;20283;-49
2023/06/20 06:56:52;;;;;;;10.93;10.25;;;;;;;24.59;96.13;98218.03;4170413;28;20208;-49
2023/06/20 06:58:57;;;;;;;12.65;11.55;;;;;;;24.76;98.38;98227.00;4139559;28;20204;-49
2023/06/20 07:00:59;;;;;;;10.60;9.90;;;;;;;25.10;95.97;98228.50;4138838;28;20263;-49
2023/06/20 07:03:01;;;;;;;12.38;11.57;;;;;;;25.34;94.51;98237.72;4141739;28;20315;-49
2023/06/20 07:05:05;;;;;;;10.20;9.40;;;;;;;25.56;92.64;98228.81;4168964;28;20664;-49
2023/06/20 07:07:06;;;;;;;10.20;9.60;;;;;;;25.53;91.42;98217.50;4135917;28;20266;-49
2023/06/20 07:09:08;;;;;;;13.93;12.82;;;;;;;24.91;93.54;98223.50;4137003;28;20209;-49
2023/06/20 07:11:10;;;;;;;13.10;12.20;;;;;;;25.03;93.46;98231.91;4137860;28;20213;-50
2023/06/20 07:13:12;;;;;;;12.05;11.30;;;;;;;25.03;93.62;98231.91;4167738;28;20206;-50
2023/06/20 07:15:13;;;;;;;10.38;9.63;;;;;;;25.23;93.40;98236.59;4138211;28;20229;-49
2023/06/20 07:17:15;;;;;;;10.32;9.73;;;;;;;25.61;92.80;98234.19;4142307;28;20208;-49
2023/06/20 07:19:17;;;;;;;11.38;10.68;;;;;;;25.43;92.13;98213.22;4143370;28;20209;-50
2023/06/20 07:21:19;;;;;;;10.95;10.35;;;;;;;25.73;92.70;98216.50;4154474;28;20264;-52
2023/06/20 07:23:21;;;;;;;12.50;11.65;;;;;;;25.50;91.14;98221.84;4140380;28;20236;-50
2023/06/20 07:25:22;;;;;;;11.13;10.43;;;;;;;25.04;91.05;98216.75;4141064;28;20233;-51
2023/06/20 07:27:25;;;;;;;11.93;11.23;;;;;;;24.72;92.99;98214.88;4167206;28;20208;-51
2023/06/20 07:29:26;;;;;;;12.90;12.10;;;;;;;25.19;91.64;98227.22;4153029;28;20202;-53
2023/06/20 07:31:28;;;;;;;11.93;11.23;;;;;;;25.63;91.87;98240.25;4151327;28;20649;-52
2023/06/20 07:33:30;;;;;;;10.57;9.98;;;;;;;25.83;90.86;98225.25;4140280;28;20217;-49
2023/06/20 07:35:32;;;;;;;11.13;10.25;;;;;;;25.74;90.09;98240.56;4138123;28;20288;-49
2023/06/20 07:37:34;;;;;;;10.70;10.00;;;;;;;26.02;89.51;98235.81;4173450;28;20261;-50
2023/06/20 07:39:40;;;;;;;10.88;10.18;;;;;;;25.92;88.28;98236.34;4152898;28;20208;-49
2023/06/20 07:41:41;;;;;;;10.90;10.10;;;;;;;26.17;90.05;98233.06;4140571;28;20209;-49
2023/06/20 07:43:43;;;;;;;11.60;10.90;;;;;;;26.16;87.13;98237.06;4138360;28;20267;-51
2023/06/20 07:45:45;;;;;;;12.15;11.40;;;;;;;26.25;86.31;98237.69;4142059;28;20248;-51
2023/06/20 07:47:47;;;;;;;10.48;9.75;;;;;;;26.01;86.60;98232.22;4136684;28;20213;-51
2023/06/20 07:49:49;;;;;;;12.20;11.38;;;;;;;26.39;88.56;98240.09;4142475;28;20213;-49
2023/06/20 07:51:51;;;;;;;10.18;9.57;;;;;;;26.66;84.27;98234.44;4140909;28;20205;-49
2023/06/20 07:53:52;;;;;;;10.02;9.32;;;;;;;26.55;82.00;98227.75;4141358;28;20570;-48
2023/06/20 07:55:55;;;;;;;10.10;9.50;;;;;;;27.00;83.07;98233.69;4137722;28;20233;-50
2023/06/20 07:57:57;;;;;;;13.73;8.55;;;;;;;27.36;81.47;98236.22;4150949;28;20216;-48
2023/06/20 08:00:00;;;;;;;8.48;7.95;;;;;;;27.62;80.37;98249.66;4138981;28;20281;-49
2023/06/20 08:02:02;;;;;;;9.52;8.90;;;;;;;27.01;77.75;98240.97;4135953;28;20208;-48
2023/06/20 08:04:04;;;;;;;9.98;9.27;;;;;;;26.90;78.70;98225.81;4150136;28;20702;-49
2023/06/20 08:06:06;;;;;;;9.93;9.23;;;;;;;26.81;79.66;98230.81;4138892;28;20224;-48
2023/06/20 08:08:07;;;;;;;8.30;7.70;;;;;;;26.91;78.59;98224.66;4169732;28;20258;-50
2023/06/20 08:10:12;;;;;;;7.93;7.43;;;;;;;27.27;76.24;98232.78;4143342;28;20232;-51
2023/06/20 08:12:14;;;;;;;8.20;7.65;;;;;;;26.62;76.93;98222.31;4125508;28;20214;-52
2023/06/20 08:14:18;;;;;;;8.43;7.90;;;;;;;26.52;79.25;98222.78;4122435;28;20201;-49
2023/06/20 08:16:19;;;;;;;8.10;7.38;;;;;;;26.83;77.09;98217.22;4141686;28;20243;-48
2023/06/20 08:18:21;;;;;;;8.02;7.43;;;;;;;26.45;77.51;98216.19;4170825;28;20358;-49
2023/06/20 08:20:23;;;;;;;7.05;6.65;;;;;;;26.90;75.43;98222.19;4143188;28;20205;-50
2023/06/20 08:22:26;;;;;;;6.97;6.47;;;;;;;27.15;75.54;98224.47;4141811;28;20220;-50
2023/06/20 08:24:28;;;;;;;6.38;5.97;;;;;;;27.12;72.31;98225.16;4139136;28;20255;-49
2023/06/20 08:26:31;;;;;;;8.25;7.75;;;;;;;27.50;74.55;98230.94;4138253;28;20205;-50
2023/06/20 08:28:35;;;;;;;6.78;6.38;;;;;;;28.15;72.72;98224.34;4154320;28;20207;-49
2023/06/20 08:30:37;;;;;;;7.38;6.72;;;;;;;28.33;69.98;98219.84;4153650;28;20211;-52
2023/06/20 08:32:44;;;;;;;6.72;6.32;;;;;;;27.90;70.82;98217.38;4169675;28;20212;-50
2023/06/20 08:34:49;;;;;;;7.70;7.05;;;;;;;27.52;70.04;98217.31;4140845;28;20220;-50
2023/06/20 08:36:53;;;;;;;6.32;5.93;;;;;;;28.03;71.55;98215.22;4135886;28;20595;-50
2023/06/20 08:38:55;;;;;;;5.80;5.40;;;;;;;28.29;68.79;98218.97;4167528;28;20204;-50
2023/06/20 08:40:57;;;;;;;4.93;4.63;;;;;;;27.96;67.84;98204.63;4125022;28;20288;-50
2023/06/20 08:42:59;;;;;;;5.70;5.30;;;;;;;28.43;68.38;98207.19;4139546;28;20271;-50
2023/06/20 08:45:02;;;;;;;4.65;4.35;;;;;;;28.46;63.39;98201.63;4120284;28;20269;-49
2023/06/20 08:47:05;;;;;;;5.75;5.25;;;;;;;28.34;64.31;98203.78;4140176;28;20208;-50
2023/06/20 08:49:07;;;;;;;4.93;4.43;;;;;;;28.67;62.61;98201.19;4135296;28;20787;-49
2023/06/20 08:51:14;;;;;;;4.65;4.18;;;;;;;28.83;63.01;98199.88;4137306;28;20205;-50
2023/06/20 08:53:16;;;;;;;5.13;4.82;;;;;;;28.79;62.78;98193.34;4136964;28;20201;-50
2023/06/20 08:55:18;;;;;;;5.05;4.75;;;;;;;28.78;62.28;98191.72;4140443;28;20282;-49
2023/06/20 08:57:21;;;;;;;5.50;5.10;;;;;;;29.11;62.68;98194.72;4170941;28;20210;-53
2023/06/20 08:59:23;;;;;;;4.47;4.18;;;;;;;28.39;60.65;98195.84;4146251;28;20744;-53
2023/06/20 09:01:25;;;;;;;5.32;4.10;;;;;;;28.44;58.65;98198.38;4154760;28;20310;-50
2023/06/20 09:03:28;;;;;;;4.45;4.10;;;;;;;28.41;58.39;98193.50;4137217;28;20205;-50
2023/06/20 09:05:32;;;;;;;4.50;4.13;;;;;;;28.64;60.78;98196.34;4123467;28;20291;-51
2023/06/20 09:07:38;;;;;;;4.40;4.10;;;;;;;28.38;60.94;98199.88;4137233;28;20304;-49
2023/06/20 09:09:40;;;;;;;4.15;3.85;;;;;;;28.32;58.65;98195.69;4136650;28;20248;-51
2023/06/20 09:11:57;;;;;;;3.67;3.38;;;;;;;28.74;58.01;98188.06;4153396;28;20743;-52
2023/06/20 09:14:02;;;;;;;3.70;3.35;;;;;;;29.41;58.23;98181.50;4148725;28;20218;-52
2023/06/20 09:16:08;;;;;;;3.22;2.92;;;;;;;29.97;56.62;98193.56;4130378;28;20236;-53
2023/06/20 09:18:13;;;;;;;3.50;3.30;;;;;;;29.55;54.27;98198.66;4145662;28;20816;-52
2023/06/20 09:20:15;;;;;;;2.80;2.60;;;;;;;29.24;53.34;98193.31;4136825;28;20855;-49
2023/06/20 09:22:18;;;;;;;3.33;3.13;;;;;;;29.17;53.74;98192.38;4136260;28;20255;-49
2023/06/20 09:24:20;;;;;;;3.47;3.17;;;;;;;29.29;53.87;98195.81;4137814;28;20229;-52
2023/06/20 09:26:22;;;;;;;3.90;3.60;;;;;;;29.32;53.57;98200.69;4137864;28;20209;-50
2023/06/20 09:28:31;;;;;;;9.23;3.10;;;;;;;29.70;54.05;98200.47;4149649;28;22003;-51
2023/06/20 09:30:39;;;;;;;2.97;2.78;;;;;;;29.27;52.93;98192.59;4137202;28;20219;-50